Time;durP1;ratioP1;P1;durP2;ratioP2;P2;SDS_P1;SDS_P2;PMS_P1;PMS_P2;Temp;Humidity;BMP_temperature;BMP_pressure;BME280_temperature;BME280_humidity;BME280_pressure;Samples;Min_cycle;Max_cycle;Signal;HPM_P1;HPM_P2
2022/01/30 00:01:38;;;;;;;3.40;3.30;;;;;;;6.18;79.36;102120.50;6114863;23;20102;-72
2022/01/30 00:04:05;;;;;;;5.32;5.13;;;;;;;5.42;80.57;102021.38;6139426;23;20047;-72
2022/01/30 00:06:31;;;;;;;3.30;3.20;;;;;;;5.45;80.67;102049.97;6110970;23;20030;-72
2022/01/30 00:08:58;;;;;;;5.63;5.32;;;;;;;5.63;81.68;102100.16;6141733;23;20028;-71
2022/01/30 00:11:29;;;;;;;3.58;3.47;;;;;;;5.68;81.58;102125.28;6113252;23;20037;-71
2022/01/30 00:13:56;;;;;;;4.75;4.55;;;;;;;5.38;81.28;102049.16;6150426;23;20027;-71
2022/01/30 00:16:25;;;;;;;3.40;3.30;;;;;;;5.59;81.17;102100.22;6120308;23;20029;-72
2022/01/30 00:19:04;;;;;;;3.55;3.45;;;;;;;5.08;80.40;101993.03;6141060;23;20029;-71
2022/01/30 00:21:39;;;;;;;4.18;3.97;;;;;;;5.99;79.87;102161.50;6102437;23;20014;-72
2022/01/30 00:24:15;;;;;;;5.07;4.88;;;;;;;5.53;80.37;102096.78;6143356;23;20024;-71
2022/01/30 00:26:42;;;;;;;3.25;3.15;;;;;;;5.52;80.96;102103.72;6105455;23;20009;-72
2022/01/30 00:29:08;;;;;;;5.35;5.15;;;;;;;5.82;81.29;102158.19;6137400;23;20328;-72
2022/01/30 00:31:37;;;;;;;3.42;3.30;;;;;;;5.10;81.45;102064.16;6111366;23;20642;-71
2022/01/30 00:34:23;;;;;;;3.20;3.10;;;;;;;4.72;81.87;102018.47;6133234;23;20062;-72
2022/01/30 00:36:50;;;;;;;3.45;3.35;;;;;;;5.42;82.02;102138.53;6121371;23;20032;-70
2022/01/30 00:39:16;;;;;;;3.38;3.28;;;;;;;5.31;82.72;102116.91;6136519;23;20604;-72
2022/01/30 00:41:42;;;;;;;3.33;3.22;;;;;;;5.56;82.94;102172.28;6115949;23;20006;-71
2022/01/30 00:44:09;;;;;;;4.95;4.75;;;;;;;4.95;82.31;102080.75;6150214;23;20016;-71
2022/01/30 00:46:38;;;;;;;3.20;3.10;;;;;;;5.33;82.48;102143.78;6111067;23;20089;-71
2022/01/30 00:49:07;;;;;;;5.40;5.20;;;;;;;5.43;82.20;102181.91;6140396;23;20031;-71
2022/01/30 00:51:37;;;;;;;3.45;3.35;;;;;;;5.34;82.51;102192.41;6120458;23;20025;-71
2022/01/30 00:54:04;;;;;;;3.50;3.40;;;;;;;5.27;83.69;102195.91;6139070;23;20017;-71
2022/01/30 00:56:31;;;;;;;3.10;3.00;;;;;;;5.26;84.04;102199.38;6125347;23;20024;-72
2022/01/30 00:58:57;;;;;;;4.63;4.40;;;;;;;4.13;83.37;102030.91;6138039;23;20718;-70
2022/01/30 01:01:24;;;;;;;3.42;3.33;;;;;;;5.12;83.30;102186.44;6114449;23;20032;-70
2022/01/30 01:03:51;;;;;;;3.20;3.10;;;;;;;5.12;84.22;102189.91;6137125;23;20036;-71
2022/01/30 01:06:17;;;;;;;3.20;3.10;;;;;;;4.90;83.56;102157.94;6114838;23;20013;-71
2022/01/30 01:08:50;;;;;;;3.10;3.00;;;;;;;5.16;83.73;102195.97;6143516;23;20503;-71
2022/01/30 01:11:52;;;;;;;3.38;3.28;;;;;;;5.15;84.20;102196.81;6111083;23;20029;-71
2022/01/30 01:25:16;;;;;;;3.00;2.90;;;;;;;4.68;84.55;102133.78;6140600;23;20032;-72
2022/01/30 01:27:43;;;;;;;3.30;3.20;;;;;;;4.82;83.63;102164.06;6107037;23;20018;-71
2022/01/30 01:30:10;;;;;;;4.80;4.60;;;;;;;5.08;84.53;102222.03;6138859;23;20018;-71
2022/01/30 01:32:36;;;;;;;3.05;2.95;;;;;;;3.63;84.89;101964.44;6119944;23;20068;-72
2022/01/30 01:35:03;;;;;;;4.75;4.55;;;;;;;4.34;84.41;102120.03;6141979;23;20101;-71
2022/01/30 01:37:30;;;;;;;3.13;3.03;;;;;;;4.85;85.62;102197.84;6126661;23;20028;-71
2022/01/30 01:39:58;;;;;;;4.72;4.53;;;;;;;4.89;84.96;102205.66;6144289;23;20104;-71
2022/01/30 01:42:29;;;;;;;3.50;3.30;;;;;;;4.77;85.20;102211.75;6095821;23;20023;-71
2022/01/30 01:44:57;;;;;;;4.40;4.20;;;;;;;4.61;86.36;102189.28;6118433;23;20051;-70
2022/01/30 01:47:28;;;;;;;3.10;3.00;;;;;;;4.40;86.36;102167.66;6145028;23;20009;-71
2022/01/30 01:49:55;;;;;;;3.95;3.78;;;;;;;4.44;86.47;102189.31;6121213;23;20466;-71
2022/01/30 01:52:23;;;;;;;5.72;3.75;;;;;;;3.92;87.68;102098.50;6144994;23;20024;-72
2022/01/30 01:54:56;;;;;;;3.40;3.30;;;;;;;4.50;88.15;102204.91;6115317;23;20027;-71
2022/01/30 01:57:25;;;;;;;3.30;3.20;;;;;;;4.39;87.80;102215.34;6138623;23;20481;-71
2022/01/30 01:59:52;;;;;;;3.30;3.20;;;;;;;3.79;88.07;102114.13;6114962;23;20077;-70
2022/01/30 02:02:20;;;;;;;3.10;3.00;;;;;;;4.16;89.14;102172.94;6139614;23;20032;-71
2022/01/30 02:04:47;;;;;;;3.22;3.13;;;;;;;4.21;88.60;102194.59;6071196;23;20109;-71
2022/01/30 02:09:41;;;;;;;2.90;2.80;;;;;;;4.14;89.83;102190.25;6119066;23;20022;-71
2022/01/30 02:12:15;;;;;;;5.15;4.95;;;;;;;3.68;89.55;102110.66;6137089;23;20029;-71
2022/01/30 02:15:15;;;;;;;3.90;3.70;;;;;;;3.58;89.09;102098.53;6092478;23;20031;-71
2022/01/30 02:25:56;;;;;;;3.92;3.72;;;;;;;3.37;89.06;102081.28;6112409;23;20461;-71
2022/01/30 02:28:25;;;;;;;4.28;4.07;;;;;;;3.99;89.65;102188.56;6137833;23;20032;-71
2022/01/30 02:31:09;;;;;;;2.90;2.80;;;;;;;3.65;89.38;102151.31;6119307;23;20572;-70
2022/01/30 02:33:36;;;;;;;4.20;4.00;;;;;;;3.58;90.48;102155.66;6144432;23;20021;-71
2022/01/30 02:36:02;;;;;;;5.28;5.07;;;;;;;4.16;90.05;102228.34;6114773;23;20028;-71
2022/01/30 02:38:29;;;;;;;3.00;2.90;;;;;;;4.21;89.31;102220.56;6149157;23;20017;-72
2022/01/30 02:40:57;;;;;;;3.75;3.60;;;;;;;3.57;89.87;102115.00;6128053;23;20047;-70
2022/01/30 02:43:29;;;;;;;3.03;2.92;;;;;;;4.20;88.89;102227.47;6170358;23;20029;-71
2022/01/30 02:48:53;;;;;;;3.03;2.92;;;;;;;3.59;89.20;102168.63;6153162;23;20251;-71
2022/01/30 02:51:22;;;;;;;2.85;2.75;;;;;;;3.50;89.72;102166.03;6057446;23;20101;-70
2022/01/30 02:54:03;;;;;;;3.13;3.03;;;;;;;3.75;89.49;102210.19;6143108;23;20023;-71
2022/01/30 02:56:30;;;;;;;3.03;2.92;;;;;;;3.90;90.10;102223.16;6106056;23;20035;-71
2022/01/30 02:58:57;;;;;;;4.30;4.10;;;;;;;3.84;89.94;102243.94;6138189;23;20009;-71
2022/01/30 03:01:23;;;;;;;3.20;3.10;;;;;;;3.75;89.35;102212.78;6119036;23;20037;-71
2022/01/30 03:03:50;;;;;;;3.03;2.92;;;;;;;3.74;89.70;102224.03;6153770;23;20028;-70
2022/01/30 03:06:16;;;;;;;3.17;3.08;;;;;;;3.54;89.63;102183.34;6117251;23;20015;-71
2022/01/30 03:08:43;;;;;;;3.20;3.10;;;;;;;4.02;89.75;102270.81;6151271;23;20035;-71
2022/01/30 03:11:09;;;;;;;4.78;4.57;;;;;;;3.89;89.44;102265.59;6112749;23;20046;-70
2022/01/30 03:13:35;;;;;;;3.20;3.10;;;;;;;3.29;90.32;102159.09;6115640;23;20638;-73
2022/01/30 03:16:03;;;;;;;34.78;5.22;;;;;;;3.71;90.80;102239.59;6096717;23;20021;-71
2022/01/30 03:18:33;;;;;;;3.10;3.00;;;;;;;3.93;90.20;102262.13;6148389;23;20024;-71
2022/01/30 03:20:59;;;;;;;5.30;5.10;;;;;;;3.62;89.95;102208.44;6110644;23;20078;-72
2022/01/30 03:23:26;;;;;;;3.10;3.00;;;;;;;3.98;90.30;102272.53;6151631;23;20459;-71
2022/01/30 03:25:58;;;;;;;4.43;4.13;;;;;;;3.89;90.65;102239.63;6113148;23;20090;-71
2022/01/30 03:28:26;;;;;;;3.10;3.00;;;;;;;4.04;90.54;102280.31;6146662;23;20032;-71
2022/01/30 03:30:58;;;;;;;3.83;3.67;;;;;;;4.09;90.48;102259.53;6109172;23;20033;-71
2022/01/30 03:33:25;;;;;;;3.08;2.97;;;;;;;4.11;90.02;102271.66;6148701;23;20083;-71
2022/01/30 03:35:52;;;;;;;3.28;3.17;;;;;;;3.70;89.77;102193.75;6089587;23;20478;-70
2022/01/30 03:38:19;;;;;;;3.10;3.00;;;;;;;4.05;90.55;102256.09;6136528;23;20051;-71
2022/01/30 03:40:47;;;;;;;3.10;3.00;;;;;;;3.37;90.85;102161.72;6114498;23;20092;-71
2022/01/30 03:43:14;;;;;;;3.22;3.13;;;;;;;4.02;91.46;102255.22;6115342;23;21342;-71
2022/01/30 03:45:41;;;;;;;2.90;2.80;;;;;;;4.02;91.10;102263.00;6097257;23;20030;-71
2022/01/30 03:48:07;;;;;;;4.85;4.65;;;;;;;4.07;90.45;102266.44;6135862;23;20013;-72
2022/01/30 03:50:34;;;;;;;3.05;2.95;;;;;;;3.79;89.38;102223.19;6120260;23;20096;-72
2022/01/30 03:53:01;;;;;;;4.78;4.57;;;;;;;3.59;89.27;102181.63;6139874;23;20027;-71
2022/01/30 03:55:27;;;;;;;3.10;3.00;;;;;;;4.14;90.22;102273.41;6114127;23;20036;-70
2022/01/30 03:57:54;;;;;;;3.30;3.20;;;;;;;3.46;89.67;102168.63;6143567;23;20009;-71
2022/01/30 04:00:20;;;;;;;3.20;3.10;;;;;;;3.96;89.75;102254.34;6108806;23;20554;-71
2022/01/30 04:02:46;;;;;;;3.03;2.92;;;;;;;4.06;89.85;102256.94;6149451;23;20025;-71
2022/01/30 04:05:13;;;;;;;3.45;3.35;;;;;;;3.24;89.68;102154.75;6111449;23;20083;-74
2022/01/30 04:07:40;;;;;;;2.95;2.85;;;;;;;4.08;89.18;102248.28;6142646;23;20032;-71
2022/01/30 04:10:07;;;;;;;5.05;4.85;;;;;;;3.49;89.80;102151.34;6119727;23;20032;-70
2022/01/30 04:12:34;;;;;;;3.00;2.90;;;;;;;4.29;89.63;102282.91;6144433;23;20025;-70
2022/01/30 04:15:01;;;;;;;4.82;4.63;;;;;;;4.10;89.74;102263.88;6116147;23;20059;-70
2022/01/30 04:17:27;;;;;;;3.10;3.00;;;;;;;3.95;89.27;102229.25;6135225;23;20453;-71
2022/01/30 04:19:54;;;;;;;3.33;3.22;;;;;;;3.30;88.90;102121.91;6112412;23;20039;-71
2022/01/30 04:22:21;;;;;;;3.30;3.20;;;;;;;4.22;89.14;102289.84;6143594;23;20048;-70
2022/01/30 04:24:48;;;;;;;3.20;3.10;;;;;;;4.15;89.60;102278.59;6114255;23;20100;-71
2022/01/30 04:27:14;;;;;;;3.60;3.50;;;;;;;4.13;88.87;102280.34;6141317;23;20012;-71
2022/01/30 04:29:41;;;;;;;3.10;3.00;;;;;;;4.12;89.62;102285.53;6108637;23;20014;-71
2022/01/30 04:32:08;;;;;;;5.13;4.93;;;;;;;4.10;89.74;102289.84;6141872;23;20032;-72
2022/01/30 04:34:35;;;;;;;3.00;2.90;;;;;;;3.44;89.96;102171.22;6109040;23;20036;-71
2022/01/30 04:37:04;;;;;;;5.18;4.97;;;;;;;3.98;90.00;102280.31;6142571;23;20039;-70
2022/01/30 04:42:29;;;;;;;4.68;4.47;;;;;;;3.88;90.06;102289.81;6139489;23;20409;-71
2022/01/30 04:59:12;;;;;;;2.95;2.85;;;;;;;3.39;89.59;102222.25;6148829;23;20036;-73
2022/01/30 05:01:15;;;;;;;3.15;3.05;;;;;;;3.59;90.46;102243.06;6103087;23;20088;-71
2022/01/30 05:04:15;;;;;;;2.92;2.83;;;;;;;3.90;89.83;102295.88;6148848;23;20084;-71
2022/01/30 05:07:43;;;;;;;2.80;2.70;;;;;;;3.90;90.90;102319.25;6107839;23;20018;-71
2022/01/30 05:09:39;;;;;;;3.00;2.90;;;;;;;3.28;91.61;102242.97;6123923;23;20056;-70
2022/01/30 05:12:06;;;;;;;5.05;4.85;;;;;;;3.24;90.89;102245.56;6119208;23;20005;-71
2022/01/30 05:14:34;;;;;;;3.00;2.90;;;;;;;3.65;90.89;102301.91;6116531;23;20641;-70
2022/01/30 05:17:01;;;;;;;4.45;4.25;;;;;;;3.76;90.47;102339.16;6122730;23;20084;-70
2022/01/30 05:19:28;;;;;;;3.08;2.97;;;;;;;3.67;91.29;102331.31;6148296;23;20470;-71
2022/01/30 05:21:55;;;;;;;3.88;3.72;;;;;;;2.93;91.86;102238.53;6095106;23;20025;-71
2022/01/30 05:24:22;;;;;;;2.95;2.85;;;;;;;3.55;91.49;102329.59;6147809;23;20590;-72
2022/01/30 05:26:49;;;;;;;3.00;2.90;;;;;;;3.53;92.92;102342.56;6119723;23;20073;-72
2022/01/30 05:29:17;;;;;;;2.80;2.70;;;;;;;3.30;92.48;102326.88;6150432;23;20016;-72
2022/01/30 05:32:10;;;;;;;2.90;2.80;;;;;;;3.50;92.17;102346.84;6093151;23;20052;-70
2022/01/30 05:34:42;;;;;;;2.95;2.85;;;;;;;3.10;93.11;102302.56;6140255;23;20021;-71
2022/01/30 05:37:28;;;;;;;3.10;3.00;;;;;;;3.45;93.59;102343.38;6115616;23;20286;-73
2022/01/30 05:39:56;;;;;;;3.97;3.83;;;;;;;3.46;93.37;102348.56;6097500;23;20087;-72
2022/01/30 05:42:26;;;;;;;3.20;3.10;;;;;;;3.37;93.81;102340.75;6137301;23;20093;-72
2022/01/30 05:47:32;;;;;;;2.90;2.80;;;;;;;3.34;93.79;102349.38;6139350;23;20481;-73
2022/01/30 05:49:59;;;;;;;4.95;4.75;;;;;;;3.36;93.65;102352.00;6113360;23;20033;-72
2022/01/30 05:52:25;;;;;;;3.35;3.25;;;;;;;2.54;93.44;102205.50;6135369;23;20017;-72
2022/01/30 05:54:51;;;;;;;3.03;2.92;;;;;;;3.48;93.44;102365.00;6113063;23;20009;-72
2022/01/30 05:57:18;;;;;;;3.10;3.00;;;;;;;3.42;92.69;102353.75;6119327;23;20029;-72
2022/01/30 05:59:45;;;;;;;3.05;2.95;;;;;;;2.92;92.92;102292.97;6115831;23;20502;-72
2022/01/30 06:02:11;;;;;;;3.03;2.92;;;;;;;3.30;93.05;102364.94;6151287;23;20042;-72
2022/01/30 06:04:38;;;;;;;2.95;2.85;;;;;;;2.67;93.81;102272.09;6123888;23;20108;-70
2022/01/30 06:07:06;;;;;;;3.10;3.00;;;;;;;3.07;93.56;102344.94;6128468;23;20025;-71
2022/01/30 06:09:33;;;;;;;2.90;2.80;;;;;;;2.72;93.44;102279.91;6153539;23;20809;-71
2022/01/30 06:11:59;;;;;;;2.97;2.88;;;;;;;3.20;94.06;102374.41;6123169;23;20011;-70
2022/01/30 06:14:26;;;;;;;2.90;2.80;;;;;;;3.03;93.80;102347.47;6151192;23;20025;-70
2022/01/30 06:16:53;;;;;;;3.30;3.20;;;;;;;2.63;93.13;102285.91;6124002;23;20014;-70
2022/01/30 06:19:22;;;;;;;2.80;2.70;;;;;;;3.20;93.44;102380.44;6157694;23;20068;-71
2022/01/30 06:21:49;;;;;;;3.00;2.90;;;;;;;2.67;93.64;102302.34;6078854;23;20030;-70
2022/01/30 06:24:16;;;;;;;3.15;3.05;;;;;;;3.25;93.32;102390.88;6141099;23;20181;-72
2022/01/30 06:26:42;;;;;;;3.10;3.00;;;;;;;3.31;93.17;102397.81;6112414;23;20012;-73
2022/01/30 06:29:09;;;;;;;4.60;4.40;;;;;;;1.94;92.58;102169.72;6143134;23;20023;-72
2022/01/30 06:31:36;;;;;;;2.95;2.85;;;;;;;2.65;91.94;102291.97;6093075;23;20054;-71
2022/01/30 06:34:02;;;;;;;3.65;3.45;;;;;;;2.68;91.53;102283.34;6145309;23;20039;-74
2022/01/30 06:36:32;;;;;;;2.90;2.80;;;;;;;3.52;92.24;102418.66;6098718;23;20509;-72
2022/01/30 06:38:59;;;;;;;5.20;5.00;;;;;;;3.53;90.80;102427.34;6121103;23;20071;-71
2022/01/30 06:41:25;;;;;;;3.00;2.90;;;;;;;3.03;91.10;102343.19;6136586;23;20068;-71
2022/01/30 06:43:52;;;;;;;3.10;3.00;;;;;;;3.11;90.16;102338.91;6149041;23;20033;-71
2022/01/30 06:46:19;;;;;;;3.00;2.90;;;;;;;3.45;91.00;102409.13;6080261;23;20073;-71
2022/01/30 06:48:45;;;;;;;2.97;2.88;;;;;;;3.30;90.44;102380.50;6153030;23;20048;-71
2022/01/30 06:51:11;;;;;;;3.10;3.00;;;;;;;3.32;90.45;102378.78;6124415;23;20022;-71
2022/01/30 06:53:38;;;;;;;2.90;2.80;;;;;;;3.15;89.92;102350.16;6120671;23;20039;-71
2022/01/30 06:56:06;;;;;;;3.20;3.10;;;;;;;3.69;90.51;102434.34;6122989;23;20025;-71
2022/01/30 06:58:33;;;;;;;2.90;2.80;;;;;;;2.71;89.35;102279.03;6126466;23;20033;-71
2022/01/30 07:00:59;;;;;;;3.00;2.90;;;;;;;3.70;90.30;102449.03;6120210;23;20706;-71
2022/01/30 07:03:30;;;;;;;3.00;2.90;;;;;;;2.68;90.30;102276.41;6116357;23;20501;-70
2022/01/30 07:05:57;;;;;;;4.07;3.90;;;;;;;3.13;89.59;102347.56;6119391;23;20064;-71
2022/01/30 07:08:23;;;;;;;3.08;2.97;;;;;;;3.71;89.28;102453.41;6116308;23;20025;-71
2022/01/30 07:10:49;;;;;;;2.90;2.80;;;;;;;2.86;90.03;102305.91;6148005;23;20032;-70
2022/01/30 07:13:16;;;;;;;3.17;3.08;;;;;;;3.47;90.31;102420.41;6113194;23;20575;-73
2022/01/30 07:15:43;;;;;;;3.10;3.00;;;;;;;3.20;89.87;102377.00;6152202;23;20029;-73
2022/01/30 07:18:09;;;;;;;4.65;4.45;;;;;;;3.68;89.71;102470.69;6115536;23;20626;-73
2022/01/30 07:20:36;;;;;;;3.20;3.10;;;;;;;3.52;90.34;102435.97;6139330;23;20027;-68
2022/01/30 07:23:02;;;;;;;4.68;4.47;;;;;;;3.72;90.00;102468.09;6111253;23;20049;-68
2022/01/30 07:25:29;;;;;;;3.10;3.00;;;;;;;3.60;90.13;102444.66;6118738;23;20046;-68
2022/01/30 07:27:55;;;;;;;4.28;4.07;;;;;;;3.72;90.31;102465.50;6106767;23;20033;-68
2022/01/30 07:30:21;;;;;;;3.42;3.33;;;;;;;3.71;89.35;102468.06;6134124;23;20024;-68
2022/01/30 07:32:48;;;;;;;3.20;3.10;;;;;;;3.69;89.71;102464.59;6114097;23;20029;-67
2022/01/30 07:35:14;;;;;;;4.20;4.00;;;;;;;3.70;89.70;102467.22;6127575;23;20534;-68
2022/01/30 07:37:41;;;;;;;3.20;3.10;;;;;;;3.46;90.34;102423.84;6114232;23;20025;-68
2022/01/30 07:40:08;;;;;;;5.15;4.95;;;;;;;3.48;90.10;102447.22;6132678;23;20476;-68
2022/01/30 07:42:35;;;;;;;3.25;3.15;;;;;;;3.63;89.35;102468.06;6083527;23;20020;-68
2022/01/30 07:45:04;;;;;;;5.32;5.13;;;;;;;3.54;90.20;102448.09;6107398;23;20100;-68
2022/01/30 07:47:30;;;;;;;3.40;3.30;;;;;;;3.70;89.98;102471.56;6109183;23;20436;-69
2022/01/30 07:49:57;;;;;;;4.97;4.78;;;;;;;3.69;89.16;102477.59;6129383;23;20017;-68
2022/01/30 07:52:24;;;;;;;3.30;3.20;;;;;;;3.71;89.53;102473.28;6087939;23;20063;-69
2022/01/30 07:54:50;;;;;;;3.15;3.05;;;;;;;3.37;89.83;102408.22;6141566;23;20087;-68
2022/01/30 07:57:18;;;;;;;3.25;3.15;;;;;;;3.80;89.86;102474.19;6093396;23;20010;-68
2022/01/30 07:59:45;;;;;;;3.05;2.95;;;;;;;3.83;88.86;102475.06;6113028;23;20091;-68
2022/01/30 08:02:12;;;;;;;3.60;3.50;;;;;;;3.83;89.01;102475.06;6093197;23;20089;-68
2022/01/30 08:04:38;;;;;;;3.20;3.10;;;;;;;3.81;87.92;102480.28;6132981;23;20028;-68
2022/01/30 08:07:06;;;;;;;5.25;5.05;;;;;;;3.79;88.37;102487.19;6113363;23;20017;-68
2022/01/30 08:09:36;;;;;;;3.35;3.25;;;;;;;3.72;87.77;102483.66;6145439;23;20548;-68
2022/01/30 08:12:03;;;;;;;3.30;3.20;;;;;;;3.39;88.55;102437.66;6093684;23;20010;-68
2022/01/30 08:15:04;;;;;;;4.47;4.28;;;;;;;3.75;88.59;102488.03;6174792;22;20116;-69
2022/01/30 08:17:33;;;;;;;3.30;3.20;;;;;;;3.80;87.92;102504.50;6080982;23;20232;-69
2022/01/30 08:19:59;;;;;;;4.75;4.55;;;;;;;3.74;88.79;102512.25;6103186;23;20041;-67
2022/01/30 08:22:29;;;;;;;3.30;3.20;;;;;;;3.69;88.87;102506.16;6110495;23;20049;-67
2022/01/30 08:24:56;;;;;;;4.43;4.22;;;;;;;3.56;88.34;102490.50;6097783;23;20306;-67
2022/01/30 08:27:23;;;;;;;2.90;2.80;;;;;;;3.32;88.67;102465.28;6107580;23;20284;-65
2022/01/30 08:29:49;;;;;;;3.20;3.10;;;;;;;3.00;88.54;102423.56;6073787;23;20029;-69
2022/01/30 08:32:16;;;;;;;3.40;3.30;;;;;;;3.55;89.31;102513.88;6100617;23;20036;-68
2022/01/30 08:34:42;;;;;;;3.50;3.30;;;;;;;3.16;88.77;102447.88;6075353;23;20072;-68
2022/01/30 08:37:09;;;;;;;5.50;5.30;;;;;;;3.63;88.64;102520.00;6131843;23;20029;-71
2022/01/30 08:39:36;;;;;;;3.10;3.00;;;;;;;3.65;88.52;102525.16;6104801;23;20081;-68
2022/01/30 08:42:02;;;;;;;4.68;4.47;;;;;;;3.76;88.11;102513.13;6131108;23;20095;-67
2022/01/30 08:44:30;;;;;;;3.10;3.00;;;;;;;3.52;87.63;102461.94;6113160;23;20075;-67
2022/01/30 08:46:56;;;;;;;3.97;3.80;;;;;;;3.45;86.95;102447.19;6125281;23;20470;-66
2022/01/30 08:49:22;;;;;;;3.40;3.30;;;;;;;3.91;86.55;102507.13;6098981;23;20020;-67
2022/01/30 08:51:49;;;;;;;3.20;3.10;;;;;;;4.03;85.62;102512.41;6121877;23;20108;-67
2022/01/30 08:54:16;;;;;;;3.65;3.55;;;;;;;4.10;85.60;102495.09;6103288;23;20024;-67
2022/01/30 08:56:42;;;;;;;3.42;3.30;;;;;;;4.44;84.08;102518.59;6102629;23;20025;-66
2022/01/30 08:59:09;;;;;;;5.10;4.90;;;;;;;4.57;83.50;102504.75;6127681;23;20037;-67
2022/01/30 09:01:35;;;;;;;3.30;3.20;;;;;;;4.28;83.71;102437.97;6100188;23;20021;-67
2022/01/30 09:04:03;;;;;;;4.88;4.68;;;;;;;4.32;82.50;102439.72;6115658;23;20460;-67
2022/01/30 09:06:31;;;;;;;3.35;3.25;;;;;;;4.82;81.51;102526.47;6107961;23;20014;-65
2022/01/30 09:09:02;;;;;;;4.65;4.45;;;;;;;4.90;82.46;102524.75;6118448;23;20159;-66
2022/01/30 09:11:28;;;;;;;3.60;3.50;;;;;;;4.95;82.77;102527.34;6107241;23;20030;-66
2022/01/30 09:13:55;;;;;;;3.67;3.55;;;;;;;4.96;81.26;102510.88;6122585;23;20025;-67
2022/01/30 09:16:21;;;;;;;3.60;3.50;;;;;;;4.62;81.55;102469.22;6108719;23;20459;-66
2022/01/30 09:18:48;;;;;;;3.85;3.65;;;;;;;4.60;82.14;102489.16;6130990;23;20272;-66
2022/01/30 09:21:14;;;;;;;3.65;3.55;;;;;;;4.82;81.34;102523.00;6103640;23;20444;-67
2022/01/30 09:23:41;;;;;;;3.30;3.20;;;;;;;4.79;81.74;102544.66;6129885;23;20080;-67
2022/01/30 09:26:07;;;;;;;5.82;5.57;;;;;;;4.89;82.16;102538.63;6074249;23;20013;-67
2022/01/30 09:28:34;;;;;;;3.15;3.05;;;;;;;4.85;81.74;102533.41;6109370;23;20017;-66
2022/01/30 09:31:00;;;;;;;5.05;4.85;;;;;;;4.86;81.34;102538.63;6078512;23;20026;-67
2022/01/30 09:33:27;;;;;;;3.40;3.30;;;;;;;5.19;81.20;102542.97;6100576;23;20025;-69
2022/01/30 09:35:53;;;;;;;3.55;3.45;;;;;;;5.32;79.60;102519.53;6080909;23;20018;-67
2022/01/30 09:38:20;;;;;;;3.60;3.50;;;;;;;5.43;79.73;102530.78;6111064;23;20005;-68
2022/01/30 09:40:50;;;;;;;3.22;3.13;;;;;;;5.19;79.16;102485.72;6087273;23;20014;-65
2022/01/30 09:43:17;;;;;;;3.33;3.22;;;;;;;5.32;79.19;102527.34;6112958;23;20213;-65
2022/01/30 09:45:44;;;;;;;3.50;3.40;;;;;;;4.90;79.24;102457.09;6088455;23;20002;-66
2022/01/30 09:48:12;;;;;;;4.75;4.55;;;;;;;5.13;78.84;102480.53;6103350;23;20071;-65
2022/01/30 09:50:40;;;;;;;3.80;3.70;;;;;;;5.06;79.61;102476.19;6091223;23;20037;-65
2022/01/30 09:53:07;;;;;;;3.40;3.30;;;;;;;5.55;79.46;102520.38;6098401;23;20041;-65
2022/01/30 09:55:33;;;;;;;3.67;3.58;;;;;;;5.82;78.64;102512.50;6081308;23;20025;-65
2022/01/30 09:58:00;;;;;;;4.80;4.60;;;;;;;5.16;77.73;102422.38;6115294;23;20013;-66
2022/01/30 10:00:26;;;;;;;3.45;3.35;;;;;;;5.07;78.41;102411.97;6081101;23;20588;-66
2022/01/30 10:02:53;;;;;;;3.92;3.80;;;;;;;5.44;79.17;102506.50;6107046;23;20276;-66
2022/01/30 10:05:20;;;;;;;3.30;3.20;;;;;;;5.14;78.92;102466.63;6060069;23;20236;-66
2022/01/30 10:07:53;;;;;;;4.25;4.05;;;;;;;5.48;78.49;102497.81;6086183;23;20021;-65
2022/01/30 10:10:23;;;;;;;3.67;3.58;;;;;;;5.79;77.42;102503.81;6078279;23;20086;-66
2022/01/30 10:13:11;;;;;;;3.45;3.35;;;;;;;5.95;76.49;102499.47;6080958;23;20022;-66
2022/01/30 10:15:48;;;;;;;3.58;3.47;;;;;;;6.07;77.45;102508.09;6079240;23;20046;-66
2022/01/30 10:18:16;;;;;;;3.35;3.25;;;;;;;5.64;77.09;102466.53;6056378;23;20281;-64
2022/01/30 10:20:42;;;;;;;3.50;3.40;;;;;;;5.59;76.44;102470.03;6104290;23;20021;-65
2022/01/30 10:23:09;;;;;;;7.45;6.15;;;;;;;5.82;76.80;102502.09;6073563;23;20018;-66
2022/01/30 10:25:53;;;;;;;3.50;3.40;;;;;;;5.98;75.55;102520.28;6085588;23;20033;-68
2022/01/30 10:28:29;;;;;;;4.00;3.80;;;;;;;5.71;73.63;102431.75;6096841;23;20032;-68
2022/01/30 10:31:00;;;;;;;19.67;18.70;;;;;;;6.44;71.64;102494.88;6034961;23;20386;-66
2022/01/30 10:33:45;;;;;;;3.60;3.50;;;;;;;6.55;70.41;102525.22;6032016;23;20029;-67
2022/01/30 10:36:22;;;;;;;6.28;5.97;;;;;;;6.22;70.40;102466.31;6082951;23;20262;-69
2022/01/30 10:38:59;;;;;;;3.47;3.38;;;;;;;6.21;71.35;102494.97;6077930;23;20021;-66
2022/01/30 10:41:35;;;;;;;3.50;3.40;;;;;;;6.21;72.09;102527.13;6083301;23;20341;-69
2022/01/30 10:44:07;;;;;;;3.70;3.60;;;;;;;6.04;71.35;102522.00;6090742;23;20391;-67
2022/01/30 10:46:48;;;;;;;3.40;3.30;;;;;;;6.12;71.91;102528.03;6107673;23;20071;-67
2022/01/30 10:49:21;;;;;;;3.58;3.47;;;;;;;6.08;70.74;102528.94;6085850;23;21202;-67
2022/01/30 10:51:56;;;;;;;3.60;3.50;;;;;;;6.28;71.13;102528.84;6113227;23;20123;-67
2022/01/30 10:54:26;;;;;;;3.53;3.42;;;;;;;5.90;70.57;102464.69;6083791;23;20050;-67
2022/01/30 10:57:02;;;;;;;4.18;3.97;;;;;;;6.39;69.70;102524.47;6111775;23;20001;-67
2022/01/30 10:59:29;;;;;;;3.38;3.28;;;;;;;6.18;69.13;102447.22;6086755;23;20030;-67
2022/01/30 11:02:19;;;;;;;4.93;4.72;;;;;;;6.56;67.82;102500.88;6090613;23;20088;-67
2022/01/30 11:04:49;;;;;;;4.15;3.95;;;;;;;6.87;66.06;102512.84;6118827;23;20033;-67
2022/01/30 11:07:20;;;;;;;3.30;3.20;;;;;;;7.05;65.52;102522.25;6083661;23;20025;-67
2022/01/30 11:10:02;;;;;;;3.28;3.17;;;;;;;6.28;64.19;102419.34;6087984;23;20112;-67
2022/01/30 11:12:43;;;;;;;3.30;3.20;;;;;;;6.45;64.52;102458.31;6117904;23;20196;-67
2022/01/30 11:15:20;;;;;;;5.15;4.95;;;;;;;6.72;63.40;102519.03;6088559;23;20021;-68
2022/01/30 11:17:49;;;;;;;3.67;3.47;;;;;;;6.87;63.80;102516.31;6114585;23;20096;-68
2022/01/30 11:20:16;;;;;;;3.40;3.30;;;;;;;6.94;61.79;102520.59;6091343;23;20021;-68
2022/01/30 11:22:47;;;;;;;5.80;4.40;;;;;;;6.94;61.89;102519.75;6088618;23;20022;-68
2022/01/30 11:25:16;;;;;;;3.80;3.60;;;;;;;6.96;63.42;102499.72;6079500;23;20324;-68
2022/01/30 11:27:46;;;;;;;3.40;3.30;;;;;;;6.96;61.71;102502.34;6088824;23;20013;-68
2022/01/30 11:30:20;;;;;;;3.90;3.70;;;;;;;6.82;61.58;102502.44;6111357;23;20459;-70
2022/01/30 11:32:50;;;;;;;3.70;3.60;;;;;;;6.74;62.86;102491.19;6059806;23;20082;-68
2022/01/30 11:35:16;;;;;;;3.50;3.40;;;;;;;6.36;62.33;102424.50;6126492;23;20199;-67
2022/01/30 11:37:43;;;;;;;3.75;3.65;;;;;;;6.74;63.47;102492.06;6088953;23;20014;-68
2022/01/30 11:40:16;;;;;;;5.03;4.82;;;;;;;6.79;64.05;102471.13;6114110;23;20029;-68
2022/01/30 11:42:49;;;;;;;3.53;3.40;;;;;;;6.73;62.98;102406.81;6086697;23;20111;-67
2022/01/30 11:45:31;;;;;;;4.80;4.60;;;;;;;6.87;61.37;102438.00;6113607;23;20076;-68
2022/01/30 11:48:12;;;;;;;3.58;3.47;;;;;;;7.08;62.23;102473.50;6086189;23;20124;-68
2022/01/30 11:50:38;;;;;;;4.07;3.92;;;;;;;6.81;62.11;102427.63;6062454;23;20061;-68
2022/01/30 11:53:04;;;;;;;3.60;3.50;;;;;;;7.03;60.72;102480.50;6094425;23;20018;-68
2022/01/30 11:55:42;;;;;;;3.55;3.45;;;;;;;6.88;61.90;102485.88;6098871;23;20029;-68
2022/01/30 11:58:30;;;;;;;5.95;5.60;;;;;;;6.98;63.00;102485.78;6085799;23;20465;-68
2022/01/30 12:01:17;;;;;;;5.40;5.20;;;;;;;5.70;61.91;102268.56;6087736;23;20379;-67
2022/01/30 12:03:54;;;;;;;3.50;3.40;;;;;;;7.02;60.59;102480.53;6093119;23;20028;-68
2022/01/30 12:06:21;;;;;;;4.32;4.13;;;;;;;7.13;60.36;102479.53;6090414;23;20267;-68
2022/01/30 12:08:55;;;;;;;3.40;3.30;;;;;;;6.61;59.60;102393.88;6111433;23;20048;-68
2022/01/30 12:11:36;;;;;;;3.50;3.40;;;;;;;7.07;58.67;102473.50;6094176;23;20286;-68
2022/01/30 12:14:05;;;;;;;5.30;5.10;;;;;;;6.47;59.31;102374.88;6091557;23;20073;-68
2022/01/30 12:16:48;;;;;;;3.50;3.40;;;;;;;5.79;58.78;102344.00;6093147;23;20024;-68
2022/01/30 12:19:48;;;;;;;4.13;3.92;;;;;;;6.76;59.57;102445.94;6120381;23;20550;-68
2022/01/30 12:22:20;;;;;;;3.80;3.70;;;;;;;6.99;59.95;102471.81;6067583;23;20037;-69
2022/01/30 12:24:48;;;;;;;;;;;;;;;7.03;60.41;102470.06;6100292;23;20443;-68
2022/01/30 12:27:16;;;;;;;4.05;3.85;;;;;;;7.06;60.29;102482.25;6067355;23;19905;-68
2022/01/30 12:29:48;;;;;;;3.50;3.40;;;;;;;6.78;57.55;102475.50;6104396;23;20036;-67